LCRA

Details ICAO LCRA (AKT)
Name Akrotiri
Region Cyprus
Timezone Asia/Nicosia (UTC+3.0)
Plans Departing 23
Arriving 39
Stats Elevation 76 ft / 23 m (AMSL)
Location 34.590417° 32.987750°
Runways 1
Magnetic Variation 4.966° E
Sunrise 2018-05-26 02:40:17 UTC / 2018-05-26 05:40:17 Local
Sunset 2018-05-26 16:52:45 UTC / 2018-05-26 19:52:45 Local
Advertisement - Login to hide

Runways

ID Width Length Bearing (true) Bearing (mag) Surface Threshold Offset Overrun Length
10 200 ft / 61 m 8,988 ft / 2,740 m 107.72° 102.75° Asphalt 0 ft / 0 m 205 ft / 62 m
28 200 ft / 61 m 8,988 ft / 2,740 m 287.74° 282.77° Asphalt 0 ft / 0 m 205 ft / 62 m

Approach Navaids

Runway Type Ident Frequency Range Bearing (true) Bearing (mag) Slope Elevation
28 Localiser AK 109.70 MHz 18 nm / 33 km 287.62° 282.65° - 76 ft / 23 m (AMSL)
28 Glidescope AK 109.70 MHz 10 nm / 19 km 287.73° 282.76° 3.00° 76 ft / 23 m (AMSL)

Map

Weather


0- 5 10 15 20 25 30 35+ Temperature / ° C

Clouds and Precipitation
Forecast for 2018-05-26 00:00 UTC. Updated 5 hours ago

Ground ~20,000 ft ~40,000 ft Winds

METAR

LCRA 260350Z 00000KT 9999 FEW020 20/15 Q1008 NOSIG

TAF

TAF LCRA 260117Z 2603/2621 27005KT 9999 FEW020

Frequencies

Tower 122.10 MHz TWR
Approach 122.10 MHz DIRECTOR
Approach 122.10 MHz APP
Approach 123.30 MHz DIRECTOR
Warning: Do not use this data for real-world aviation or navigation. No guarantee of current accuracy is given.